createdAt,value
2023-04-08T00:02:37.395Z,14.07
2023-04-08T00:05:40.274Z,15.60
2023-04-08T00:08:43.406Z,19.23
2023-04-08T00:11:46.417Z,18.48
2023-04-08T00:14:49.304Z,17.15
2023-04-08T00:17:54.603Z,19.30
2023-04-08T00:20:58.183Z,18.75
2023-04-08T00:24:01.302Z,15.40
2023-04-08T00:27:04.383Z,19.67
2023-04-08T00:30:08.395Z,20.17
2023-04-08T00:33:12.770Z,19.33
2023-04-08T00:36:15.877Z,18.35
2023-04-08T00:39:18.977Z,20.92
2023-04-08T00:42:22.342Z,20.88
2023-04-08T00:45:25.302Z,21.55
2023-04-08T00:48:31.429Z,21.80
2023-04-08T00:51:36.397Z,17.85
2023-04-08T00:54:39.782Z,19.63
2023-04-08T00:57:43.393Z,21.20
2023-04-08T01:00:53.867Z,21.00
2023-04-08T01:04:03.673Z,19.90
2023-04-08T01:07:14.483Z,20.23
2023-04-08T01:10:19.649Z,24.75
2023-04-08T01:13:27.271Z,24.80
2023-04-08T01:16:30.356Z,25.50
2023-04-08T01:19:38.938Z,25.07
2023-04-08T01:22:53.782Z,25.05
2023-04-08T01:25:59.568Z,25.35
2023-04-08T01:29:04.097Z,27.63
2023-04-08T01:32:09.033Z,28.15
2023-04-08T01:35:12.579Z,27.80
2023-04-08T01:38:18.140Z,21.77
2023-04-08T01:41:22.884Z,27.25
2023-04-08T01:44:27.893Z,24.98
2023-04-08T01:47:31.913Z,25.40
2023-04-08T01:50:35.817Z,24.30
2023-04-08T01:53:38.776Z,24.10
2023-04-08T01:56:45.840Z,26.08
2023-04-08T01:59:52.158Z,23.98
2023-04-08T02:02:56.925Z,29.23
2023-04-08T02:05:59.933Z,25.83
2023-04-08T02:09:03.015Z,25.10
2023-04-08T02:12:07.573Z,25.08
2023-04-08T02:15:10.939Z,23.20
2023-04-08T02:18:17.593Z,20.08
2023-04-08T02:21:28.261Z,25.80
2023-04-08T02:24:31.688Z,23.48
2023-04-08T02:27:37.341Z,22.75
2023-04-08T02:30:44.473Z,26.17
2023-04-08T02:33:47.571Z,25.80
2023-04-08T02:36:51.279Z,25.80
2023-04-08T02:39:53.973Z,22.55
2023-04-08T02:42:58.767Z,23.50
2023-04-08T02:46:04.214Z,23.05
2023-04-08T02:49:07.256Z,26.95
2023-04-08T02:52:10.316Z,24.00
2023-04-08T02:55:13.194Z,23.02
2023-04-08T02:58:17.408Z,28.80
2023-04-08T03:01:20.454Z,22.98
2023-04-08T03:04:23.362Z,24.08
2023-04-08T03:07:26.308Z,20.23
2023-04-08T03:10:29.494Z,21.67
2023-04-08T03:13:34.286Z,27.58
2023-04-08T03:16:37.033Z,23.27
2023-04-08T03:19:39.973Z,26.15
2023-04-08T03:22:43.087Z,22.90
2023-04-08T03:25:45.885Z,26.15
2023-04-08T03:28:50.650Z,24.85
2023-04-08T03:31:54.145Z,25.00
2023-04-08T03:34:56.917Z,23.38
2023-04-08T03:38:00.019Z,25.83
2023-04-08T03:41:02.783Z,24.13
2023-04-08T03:44:07.773Z,26.88
2023-04-08T03:47:10.562Z,23.23
2023-04-08T03:50:13.568Z,23.13
2023-04-08T03:53:16.497Z,24.17
2023-04-08T03:56:19.323Z,20.27
2023-04-08T03:59:24.585Z,22.70
2023-04-08T04:02:27.809Z,23.33
2023-04-08T04:05:31.020Z,24.20
2023-04-08T04:08:34.498Z,26.40
2023-04-08T04:11:37.495Z,26.40
2023-04-08T04:14:41.542Z,24.52
2023-04-08T04:17:44.500Z,22.85
2023-04-08T04:20:47.376Z,24.40
2023-04-08T04:23:50.234Z,25.80
2023-04-08T04:26:53.952Z,26.83
2023-04-08T04:29:58.230Z,25.92
2023-04-08T04:33:00.935Z,25.77
2023-04-08T04:36:05.555Z,24.45
2023-04-08T04:39:08.518Z,25.47
2023-04-08T04:42:11.294Z,27.85
2023-04-08T04:45:16.026Z,28.60
2023-04-08T04:48:18.868Z,27.60
2023-04-08T04:51:21.973Z,25.52
2023-04-08T04:54:28.331Z,23.53
2023-04-08T04:57:31.637Z,27.08
2023-04-08T05:00:36.975Z,25.20
2023-04-08T05:03:40.038Z,29.75
2023-04-08T05:06:43.206Z,31.83
2023-04-08T05:09:47.090Z,30.63
2023-04-08T05:12:49.875Z,23.83
2023-04-08T05:15:54.094Z,29.55
2023-04-08T05:18:57.025Z,29.38
2023-04-08T05:22:00.407Z,26.02
2023-04-08T05:25:03.287Z,25.87
2023-04-08T05:28:06.763Z,30.75
2023-04-08T05:31:11.992Z,27.80
2023-04-08T05:34:22.532Z,26.02
2023-04-08T05:37:25.594Z,25.52
2023-04-08T05:40:29.624Z,23.33
2023-04-08T05:43:34.265Z,26.83
2023-04-08T05:46:38.735Z,29.83
2023-04-08T05:49:41.786Z,27.42
2023-04-08T05:52:46.602Z,25.77
2023-04-08T05:55:49.498Z,23.93
2023-04-08T05:58:52.454Z,27.38
2023-04-08T06:01:57.160Z,27.27
2023-04-08T06:05:00.039Z,32.10
2023-04-08T06:08:03.072Z,29.85
2023-04-08T06:11:07.000Z,27.00
2023-04-08T06:14:09.720Z,28.13
2023-04-08T06:17:14.030Z,28.95
2023-04-08T06:20:16.940Z,29.00
2023-04-08T06:23:20.064Z,32.83
2023-04-08T06:26:22.959Z,26.70
2023-04-08T06:29:25.898Z,30.52
2023-04-08T06:32:30.202Z,31.02
2023-04-08T06:35:33.080Z,28.63
2023-04-08T06:38:36.266Z,30.75
2023-04-08T06:41:39.143Z,27.17
2023-04-08T06:44:42.789Z,28.58
2023-04-08T06:47:48.243Z,26.30
2023-04-08T06:50:51.248Z,26.40
2023-04-08T06:53:54.155Z,28.95
2023-04-08T06:56:57.510Z,31.50
2023-04-08T07:00:00.541Z,31.10
2023-04-08T07:03:06.557Z,29.85
2023-04-08T07:06:09.918Z,28.73
2023-04-08T07:09:12.641Z,31.10
2023-04-08T07:12:15.679Z,30.60
2023-04-08T07:15:18.489Z,28.45
2023-04-08T07:18:23.635Z,29.45
2023-04-08T07:21:27.166Z,30.33
2023-04-08T07:24:29.919Z,35.47
2023-04-08T07:27:32.927Z,33.63
2023-04-08T07:30:35.769Z,33.40
2023-04-08T07:33:40.860Z,26.70
2023-04-08T07:36:44.122Z,27.75
2023-04-08T07:39:46.785Z,26.60
2023-04-08T07:42:49.604Z,28.27
2023-04-08T07:45:52.388Z,33.17
2023-04-08T07:48:57.499Z,27.25
2023-04-08T07:52:00.452Z,29.63
2023-04-08T07:55:03.273Z,32.13
2023-04-08T07:58:06.340Z,31.53
2023-04-08T08:01:18.796Z,34.60
2023-04-08T08:04:25.959Z,30.73
2023-04-08T08:07:29.027Z,34.38
2023-04-08T08:10:32.204Z,32.88
2023-04-08T08:13:35.132Z,30.07
2023-04-08T08:16:38.659Z,29.83
2023-04-08T08:19:42.903Z,32.10
2023-04-08T08:22:56.692Z,29.30
2023-04-08T08:26:01.343Z,27.50
2023-04-08T08:29:06.590Z,27.13
2023-04-08T08:32:09.318Z,32.33
2023-04-08T08:35:13.393Z,30.58
2023-04-08T08:38:17.704Z,31.23
2023-04-08T08:41:22.292Z,29.83
2023-04-08T08:44:25.863Z,34.30
2023-04-08T08:47:28.599Z,34.22
2023-04-08T08:50:32.976Z,31.92
2023-04-08T08:53:36.342Z,30.00
2023-04-08T08:56:39.669Z,29.02
2023-04-08T08:59:42.637Z,32.13
2023-04-08T09:02:59.665Z,33.63
2023-04-08T09:06:05.528Z,32.10
2023-04-08T09:09:10.676Z,32.15
2023-04-08T09:12:13.955Z,32.13
2023-04-08T09:15:16.790Z,28.83
2023-04-08T09:18:23.296Z,28.48
2023-04-08T09:21:27.819Z,31.35
2023-04-08T09:24:32.472Z,29.98
2023-04-08T09:27:36.277Z,29.17
2023-04-08T09:30:39.254Z,34.63
2023-04-08T09:33:42.102Z,28.08
2023-04-08T09:36:48.671Z,31.58
2023-04-08T09:39:51.588Z,28.50
2023-04-08T09:42:56.218Z,35.35
2023-04-08T09:46:04.345Z,34.23
2023-04-08T09:49:08.721Z,36.17
2023-04-08T09:52:17.524Z,34.45
2023-04-08T09:55:23.789Z,29.58
2023-04-08T09:58:30.525Z,30.85
2023-04-08T10:01:40.178Z,26.77
2023-04-08T10:04:49.088Z,28.77
2023-04-08T10:07:54.543Z,28.38
2023-04-08T10:10:57.848Z,30.52
2023-04-08T10:14:01.235Z,27.23
2023-04-08T10:17:27.591Z,26.33
2023-04-08T10:20:44.673Z,26.77
2023-04-08T10:24:00.938Z,25.63
2023-04-08T10:27:05.732Z,29.33
2023-04-08T10:30:43.547Z,25.83
2023-04-08T10:33:46.464Z,24.93
2023-04-08T10:36:49.963Z,21.55
2023-04-08T10:39:55.929Z,25.15
2023-04-08T10:42:59.894Z,24.77
2023-04-08T10:46:03.025Z,21.77
2023-04-08T10:49:07.025Z,23.77
2023-04-08T10:52:10.406Z,23.85
2023-04-08T10:55:14.665Z,23.70
2023-04-08T10:58:18.196Z,24.08
2023-04-08T11:01:21.447Z,23.30
2023-04-08T11:04:25.344Z,23.27
2023-04-08T11:07:28.279Z,20.15
2023-04-08T11:10:37.613Z,25.33
2023-04-08T11:13:51.255Z,21.75
2023-04-08T11:16:55.916Z,22.02
2023-04-08T11:20:02.335Z,21.73
2023-04-08T11:23:05.161Z,22.08
2023-04-08T11:26:10.541Z,22.02
2023-04-08T11:29:15.265Z,25.50
2023-04-08T11:32:19.001Z,16.98
2023-04-08T11:35:21.880Z,16.03
2023-04-08T11:38:25.908Z,18.58
2023-04-08T11:41:39.416Z,20.02
2023-04-08T11:44:42.771Z,20.75
2023-04-08T11:47:47.182Z,20.38
2023-04-08T11:51:03.771Z,19.17
2023-04-08T11:54:07.980Z,20.67
2023-04-08T11:57:12.930Z,19.83
2023-04-08T12:00:17.912Z,16.88
2023-04-08T12:03:22.052Z,21.35
2023-04-08T12:06:27.288Z,17.17
2023-04-08T12:09:30.188Z,18.58
2023-04-08T12:12:34.714Z,19.23
2023-04-08T12:15:38.350Z,19.50
2023-04-08T12:18:42.680Z,19.67
2023-04-08T12:21:45.826Z,19.17
2023-04-08T12:24:48.605Z,17.90
2023-04-08T12:27:52.756Z,15.75
2023-04-08T12:30:55.793Z,21.40
2023-04-08T12:33:58.940Z,18.85
2023-04-08T12:37:02.648Z,20.70
2023-04-08T12:40:06.078Z,18.75
2023-04-08T12:43:10.481Z,18.88
2023-04-08T12:46:13.425Z,16.25
2023-04-08T12:49:16.519Z,20.25
2023-04-08T12:52:19.881Z,18.60
2023-04-08T12:55:24.927Z,20.95
2023-04-08T12:58:29.696Z,18.70
2023-04-08T13:01:32.632Z,19.45
2023-04-08T13:04:37.293Z,20.65
2023-04-08T13:07:40.102Z,20.20
2023-04-08T13:10:43.722Z,18.42
2023-04-08T13:13:48.184Z,18.73
2023-04-08T13:16:51.095Z,19.67
2023-04-08T13:19:54.799Z,15.93
2023-04-08T13:22:59.956Z,16.53
2023-04-08T13:26:03.087Z,17.75
2023-04-08T13:29:07.256Z,17.55
2023-04-08T13:32:10.337Z,17.17
2023-04-08T13:35:15.088Z,17.55
2023-04-08T13:38:18.207Z,16.03
2023-04-08T13:41:22.156Z,18.80
2023-04-08T13:44:27.766Z,16.45
2023-04-08T13:47:32.697Z,17.67
2023-04-08T13:50:36.539Z,17.48
2023-04-08T13:53:39.641Z,14.30
2023-04-08T13:56:44.518Z,18.05
2023-04-08T13:59:48.903Z,16.13
2023-04-08T14:02:51.820Z,15.43
2023-04-08T14:05:55.409Z,19.83
2023-04-08T14:08:58.159Z,17.57
2023-04-08T14:12:00.887Z,17.40
2023-04-08T14:15:05.659Z,18.55
2023-04-08T14:18:10.127Z,16.55
2023-04-08T14:21:15.906Z,13.75
2023-04-08T14:24:18.977Z,14.90
2023-04-08T14:27:24.434Z,15.02
2023-04-08T14:30:29.185Z,14.18
2023-04-08T14:33:34.153Z,17.30
2023-04-08T14:36:37.591Z,16.52
2023-04-08T14:39:40.436Z,16.50
2023-04-08T14:42:44.545Z,16.73
2023-04-08T14:45:50.629Z,15.30
2023-04-08T14:48:54.025Z,17.38
2023-04-08T14:51:57.428Z,16.63
2023-04-08T14:55:00.518Z,15.87
2023-04-08T14:58:04.726Z,17.23
2023-04-08T15:01:08.922Z,18.77
2023-04-08T15:04:13.403Z,15.85
2023-04-08T15:07:18.086Z,16.23
2023-04-08T15:10:22.552Z,13.93
2023-04-08T15:13:25.343Z,13.07
2023-04-08T15:16:29.710Z,13.27
2023-04-08T15:19:32.680Z,12.97
2023-04-08T15:22:35.568Z,12.43
2023-04-08T15:25:38.402Z,14.27
2023-04-08T15:28:41.599Z,15.50
2023-04-08T15:31:45.882Z,13.93
2023-04-08T15:34:50.610Z,12.80
2023-04-08T15:37:53.646Z,12.10
2023-04-08T15:40:56.409Z,13.50
2023-04-08T15:43:59.698Z,11.75
2023-04-08T15:47:04.668Z,12.85
2023-04-08T15:50:09.808Z,11.13
2023-04-08T15:53:12.747Z,11.80
2023-04-08T15:56:18.163Z,10.25
2023-04-08T15:59:24.617Z,10.68
2023-04-08T16:02:31.396Z,11.93
2023-04-08T16:05:36.141Z,12.67
2023-04-08T16:08:39.288Z,18.67
2023-04-08T16:11:43.481Z,21.90
2023-04-08T16:14:47.905Z,20.00
2023-04-08T16:18:04.694Z,20.25
2023-04-08T16:21:08.004Z,18.30
2023-04-08T16:24:11.640Z,22.77
2023-04-08T16:27:14.956Z,21.75
2023-04-08T16:30:18.146Z,23.35
2023-04-08T16:33:24.008Z,22.42
2023-04-08T16:36:28.411Z,24.17
2023-04-08T16:39:32.715Z,22.02
2023-04-08T16:42:35.427Z,19.50
2023-04-08T16:45:39.048Z,24.45
2023-04-08T16:48:43.952Z,22.92
2023-04-08T16:51:59.005Z,23.45
2023-04-08T16:55:09.426Z,25.10
2023-04-08T16:58:12.241Z,26.20
2023-04-08T17:01:16.108Z,25.45
2023-04-08T17:04:20.822Z,27.80
2023-04-08T17:07:24.148Z,25.17
2023-04-08T17:10:26.935Z,23.65
2023-04-08T17:13:29.897Z,21.98
2023-04-08T17:16:33.917Z,26.48
2023-04-08T17:19:38.810Z,28.25
2023-04-08T17:22:42.089Z,25.93
2023-04-08T17:25:46.564Z,26.77
2023-04-08T17:28:49.843Z,24.05
2023-04-08T17:31:53.350Z,24.20
2023-04-08T17:34:57.814Z,23.33
2023-04-08T17:38:00.674Z,22.83
2023-04-08T17:41:03.465Z,23.83
2023-04-08T17:44:06.191Z,21.70
2023-04-08T17:47:09.789Z,22.73
2023-04-08T17:50:15.840Z,23.98
2023-04-08T17:53:18.852Z,22.70
2023-04-08T17:56:23.806Z,23.33
2023-04-08T17:59:27.030Z,25.63
2023-04-08T18:02:30.238Z,21.15
2023-04-08T18:05:35.488Z,23.25
2023-04-08T18:08:39.398Z,20.58
2023-04-08T18:11:42.701Z,21.75
2023-04-08T18:14:45.426Z,20.97
2023-04-08T18:17:48.857Z,19.42
2023-04-08T18:20:53.255Z,22.25
2023-04-08T18:23:56.244Z,20.65
2023-04-08T18:27:04.461Z,22.58
2023-04-08T18:30:08.849Z,21.27
2023-04-08T18:33:13.413Z,20.48
2023-04-08T18:36:19.016Z,23.60
2023-04-08T18:39:22.551Z,22.33
2023-04-08T18:42:26.202Z,22.13
2023-04-08T18:45:29.563Z,24.20
2023-04-08T18:48:33.448Z,22.25
2023-04-08T18:51:42.103Z,23.92
2023-04-08T18:54:48.915Z,24.85
2023-04-08T18:57:52.515Z,25.67
2023-04-08T19:00:55.514Z,25.00
2023-04-08T19:03:58.576Z,25.55
2023-04-08T19:07:03.044Z,26.38
2023-04-08T19:10:06.709Z,25.35
2023-04-08T19:13:09.510Z,25.25
2023-04-08T19:16:12.848Z,27.20
2023-04-08T19:19:16.231Z,25.88
2023-04-08T19:22:20.861Z,24.92
2023-04-08T19:25:23.582Z,23.33
2023-04-08T19:28:26.331Z,25.77
2023-04-08T19:31:30.337Z,20.93
2023-04-08T19:34:37.423Z,24.27
2023-04-08T19:37:41.729Z,25.77
2023-04-08T19:40:44.568Z,25.67
2023-04-08T19:43:47.759Z,23.63
2023-04-08T19:46:51.389Z,22.53
2023-04-08T19:49:54.089Z,23.10
2023-04-08T19:52:58.669Z,22.25
2023-04-08T19:56:02.318Z,21.25
2023-04-08T19:59:05.062Z,19.83
2023-04-08T20:02:08.507Z,21.53
2023-04-08T20:05:14.675Z,22.85
2023-04-08T20:08:19.006Z,20.88
2023-04-08T20:11:22.237Z,19.38
2023-04-08T20:14:25.499Z,24.38
2023-04-08T20:17:28.968Z,20.90
2023-04-08T20:20:31.966Z,20.55
2023-04-08T20:23:36.401Z,20.83
2023-04-08T20:26:40.503Z,23.50
2023-04-08T20:29:43.813Z,19.20
2023-04-08T20:32:49.053Z,17.43
2023-04-08T20:35:53.353Z,19.58
2023-04-08T20:38:57.991Z,19.55
2023-04-08T20:42:01.608Z,19.00
2023-04-08T20:45:05.903Z,21.77
2023-04-08T20:48:09.125Z,16.90
2023-04-08T20:51:12.184Z,18.17
2023-04-08T20:54:16.452Z,19.13
2023-04-08T20:57:19.434Z,16.92
2023-04-08T21:00:22.368Z,18.75
2023-04-08T21:03:25.296Z,19.67
2023-04-08T21:06:28.513Z,19.35
2023-04-08T21:09:32.685Z,16.98
2023-04-08T21:12:35.398Z,18.95
2023-04-08T21:15:38.726Z,19.95
2023-04-08T21:18:42.515Z,20.40
2023-04-08T21:21:47.031Z,20.45
2023-04-08T21:24:51.701Z,19.52
2023-04-08T21:27:54.910Z,18.77
2023-04-08T21:30:59.880Z,17.35
2023-04-08T21:34:02.742Z,21.87
2023-04-08T21:37:06.050Z,19.55
2023-04-08T21:40:12.056Z,19.13
2023-04-08T21:43:15.561Z,19.00
2023-04-08T21:46:18.831Z,20.60
2023-04-08T21:49:22.032Z,18.07
2023-04-08T21:52:26.729Z,21.92
2023-04-08T21:55:31.883Z,18.65
2023-04-08T21:58:34.972Z,19.65
2023-04-08T22:01:37.898Z,21.30
2023-04-08T22:04:41.213Z,21.33
2023-04-08T22:07:43.964Z,22.48
2023-04-08T22:10:48.210Z,21.63
2023-04-08T22:13:51.788Z,21.83
2023-04-08T22:16:54.865Z,22.80
2023-04-08T22:19:57.877Z,23.90
2023-04-08T22:23:00.668Z,38.30
2023-04-08T22:26:05.076Z,40.88
2023-04-08T22:29:07.870Z,42.60
2023-04-08T22:32:10.976Z,37.23
2023-04-08T22:35:14.157Z,37.93
2023-04-08T22:38:16.879Z,38.08
2023-04-08T22:41:22.687Z,35.03
2023-04-08T22:44:25.823Z,36.78
2023-04-08T22:47:28.684Z,34.77
2023-04-08T22:50:32.696Z,32.93
2023-04-08T22:53:35.856Z,28.23
2023-04-08T22:56:40.083Z,25.70
2023-04-08T22:59:42.873Z,24.08
2023-04-08T23:02:46.053Z,22.87
2023-04-08T23:05:48.980Z,21.80
2023-04-08T23:08:52.862Z,22.15
2023-04-08T23:12:05.250Z,22.50
2023-04-08T23:15:09.195Z,19.77
2023-04-08T23:18:12.892Z,22.70
2023-04-08T23:21:16.824Z,21.57
2023-04-08T23:24:19.520Z,21.63
2023-04-08T23:27:23.841Z,20.27
2023-04-08T23:30:26.823Z,19.70
2023-04-08T23:33:29.996Z,19.57
2023-04-08T23:36:33.813Z,20.57
2023-04-08T23:39:37.530Z,20.98
2023-04-08T23:42:42.150Z,20.75
2023-04-08T23:45:44.870Z,19.58
2023-04-08T23:48:48.238Z,21.57
2023-04-08T23:51:51.637Z,22.70
2023-04-08T23:54:54.385Z,23.23
2023-04-08T23:57:58.635Z,24.30
